Time;durP1;ratioP1;P1;durP2;ratioP2;P2;SDS_P1;SDS_P2;PMS_P1;PMS_P2;Temp;Humidity;BMP_temperature;BMP_pressure;BME280_temperature;BME280_humidity;BME280_pressure;Samples;Min_cycle;Max_cycle;Signal;HPM_P1;HPM_P2
2022/12/05 00:01:41;;;;;;;33.92;20.27;;;4.60;99.90;;;;;;5022522;28;20481;-75
2022/12/05 00:04:09;;;;;;;42.80;22.75;;;4.60;99.90;;;;;;5031345;28;20037;-74
2022/12/05 00:06:36;;;;;;;32.88;21.85;;;4.60;99.90;;;;;;5017609;28;20075;-74
2022/12/05 00:09:03;;;;;;;33.42;19.55;;;4.70;99.90;;;;;;5035576;28;20451;-74
2022/12/05 00:11:33;;;;;;;37.22;20.05;;;4.60;99.90;;;;;;5017752;28;20400;-74
2022/12/05 00:13:59;;;;;;;28.00;18.33;;;4.70;99.90;;;;;;5035618;28;20107;-74
2022/12/05 00:16:28;;;;;;;34.20;19.67;;;4.70;99.90;;;;;;5035964;28;20021;-74
2022/12/05 00:18:53;;;;;;;32.95;19.42;;;4.70;99.90;;;;;;5035790;28;20480;-74
2022/12/05 00:21:24;;;;;;;38.50;20.27;;;4.70;99.90;;;;;;5035682;28;20030;-74
2022/12/05 00:23:50;;;;;;;29.55;19.58;;;4.70;99.90;;;;;;5034896;28;20025;-74
2022/12/05 00:26:16;;;;;;;36.70;20.13;;;4.70;99.90;;;;;;5035428;28;20026;-74
2022/12/05 00:28:42;;;;;;;33.35;19.85;;;4.70;99.90;;;;;;5034815;28;20030;-75
2022/12/05 00:31:11;;;;;;;38.72;20.75;;;4.70;99.90;;;;;;5017436;28;20029;-74
2022/12/05 00:33:37;;;;;;;34.40;20.27;;;4.70;99.90;;;;;;5035596;28;20072;-74
2022/12/05 00:36:13;;;;;;;28.55;17.88;;;4.70;99.90;;;;;;5035308;28;20029;-74
2022/12/05 00:38:41;;;;;;;31.55;18.75;;;4.70;99.90;;;;;;5035711;28;20021;-74
2022/12/05 00:41:10;;;;;;;31.67;18.58;;;4.70;99.90;;;;;;5017547;28;20055;-74
2022/12/05 00:43:36;;;;;;;27.58;16.95;;;4.70;99.90;;;;;;5034480;28;20033;-74
2022/12/05 00:46:07;;;;;;;27.92;18.45;;;4.60;99.90;;;;;;5034871;28;20040;-74
2022/12/05 00:48:33;;;;;;;34.55;18.23;;;4.70;99.90;;;;;;5035290;28;20380;-74
2022/12/05 00:51:08;;;;;;;29.45;17.13;;;4.60;99.90;;;;;;5034259;28;20034;-74
2022/12/05 00:53:34;;;;;;;27.73;16.55;;;4.60;99.90;;;;;;5016866;28;20029;-74
2022/12/05 00:56:07;;;;;;;32.20;18.75;;;4.60;99.90;;;;;;5035013;28;20040;-74
2022/12/05 00:58:33;;;;;;;31.55;18.52;;;4.60;99.90;;;;;;5034734;28;20032;-75
2022/12/05 01:01:26;;;;;;;32.47;17.40;;;4.60;99.90;;;;;;5034447;28;20037;-74
2022/12/05 01:03:54;;;;;;;30.23;17.15;;;4.60;99.90;;;;;;5031230;28;20577;-74
2022/12/05 01:06:20;;;;;;;27.50;15.85;;;4.60;99.90;;;;;;5016888;28;20032;-74
2022/12/05 01:08:46;;;;;;;26.85;16.50;;;4.60;99.90;;;;;;5034318;28;20550;-74
2022/12/05 01:11:16;;;;;;;27.73;16.95;;;4.60;99.90;;;;;;5034347;28;20036;-74
2022/12/05 01:13:42;;;;;;;27.55;17.35;;;4.60;99.90;;;;;;5034350;28;20045;-74
2022/12/05 01:16:24;;;;;;;24.00;15.18;;;4.60;99.90;;;;;;5033842;28;20026;-74
2022/12/05 01:18:50;;;;;;;23.02;14.55;;;4.60;99.90;;;;;;5016644;28;20088;-74
2022/12/05 01:21:16;;;;;;;29.42;14.68;;;4.60;99.90;;;;;;5034528;28;20025;-74
2022/12/05 01:23:41;;;;;;;24.90;13.38;;;4.60;99.90;;;;;;5016520;28;20454;-74
2022/12/05 01:26:09;;;;;;;22.63;13.90;;;4.60;99.90;;;;;;5034215;28;20076;-74
2022/12/05 01:28:35;;;;;;;22.33;13.38;;;4.60;99.90;;;;;;5015795;28;20029;-75
2022/12/05 01:31:07;;;;;;;20.17;12.73;;;4.60;99.90;;;;;;5034095;28;20477;-74
2022/12/05 01:33:34;;;;;;;19.52;12.10;;;4.60;99.90;;;;;;5016812;28;20055;-74
2022/12/05 01:36:01;;;;;;;19.88;12.85;;;4.60;99.90;;;;;;5032875;28;20025;-74
2022/12/05 01:38:26;;;;;;;19.60;12.23;;;4.60;99.90;;;;;;5034009;28;20025;-74
2022/12/05 01:41:06;;;;;;;25.17;12.77;;;4.60;99.90;;;;;;5015769;28;20030;-74
2022/12/05 01:43:32;;;;;;;21.92;13.13;;;4.60;99.90;;;;;;5033766;28;20055;-74
2022/12/05 01:45:58;;;;;;;20.75;13.52;;;4.60;99.90;;;;;;5034460;28;20083;-74
2022/12/05 01:48:30;;;;;;;20.55;12.48;;;4.60;99.90;;;;;;5033283;28;20507;-75
2022/12/05 01:50:57;;;;;;;22.77;13.17;;;4.60;99.90;;;;;;5034319;28;20032;-74
2022/12/05 01:53:23;;;;;;;20.92;13.02;;;4.60;99.90;;;;;;5034022;28;20306;-74
2022/12/05 01:55:50;;;;;;;22.88;12.32;;;4.60;99.90;;;;;;5033910;28;20013;-74
2022/12/05 01:58:17;;;;;;;21.92;12.93;;;4.60;99.90;;;;;;5033507;28;20021;-75
2022/12/05 02:00:44;;;;;;;25.65;13.00;;;4.60;99.90;;;;;;5033794;28;20080;-74
2022/12/05 02:03:16;;;;;;;21.83;12.57;;;4.60;99.90;;;;;;5033186;28;20538;-74
2022/12/05 02:05:43;;;;;;;29.38;13.60;;;4.60;99.90;;;;;;5034074;28;20044;-74
2022/12/05 02:08:10;;;;;;;22.77;12.68;;;4.60;99.90;;;;;;5033642;28;20028;-74
2022/12/05 02:10:42;;;;;;;24.42;13.00;;;4.50;99.90;;;;;;5033641;28;20022;-76
2022/12/05 02:13:32;;;;;;;19.60;12.70;;;4.60;99.90;;;;;;5031166;28;20022;-75
2022/12/05 02:16:11;;;;;;;19.50;12.73;;;4.60;99.90;;;;;;5016309;28;20388;-74
2022/12/05 02:19:17;;;;;;;25.08;12.77;;;4.60;99.90;;;;;;5033825;28;20022;-74
2022/12/05 02:22:17;;;;;;;25.48;13.60;;;4.60;99.90;;;;;;5033192;28;20025;-74
2022/12/05 02:25:10;;;;;;;22.10;13.25;;;4.60;99.90;;;;;;5008106;28;20077;-74
2022/12/05 02:27:56;;;;;;;24.63;13.07;;;4.50;99.90;;;;;;5015759;28;20091;-74
2022/12/05 02:30:23;;;;;;;19.90;13.98;;;4.60;99.90;;;;;;5033867;28;20535;-74
2022/12/05 02:32:57;;;;;;;23.40;14.43;;;4.50;99.90;;;;;;5032800;28;20487;-74
2022/12/05 02:35:43;;;;;;;26.23;14.15;;;4.60;99.90;;;;;;5015589;28;20017;-74
2022/12/05 02:38:20;;;;;;;20.70;13.30;;;4.50;99.90;;;;;;5032632;28;20037;-74
2022/12/05 02:41:04;;;;;;;25.55;14.35;;;4.50;99.90;;;;;;5032926;28;20030;-74
2022/12/05 02:44:05;;;;;;;25.27;14.30;;;4.50;99.90;;;;;;5033443;28;20430;-74
2022/12/05 02:46:34;;;;;;;24.33;13.68;;;4.50;99.90;;;;;;5005075;28;20041;-74
2022/12/05 02:49:10;;;;;;;22.63;13.50;;;4.50;99.90;;;;;;5018169;28;20026;-74
2022/12/05 02:51:45;;;;;;;23.63;13.48;;;4.50;99.90;;;;;;5037317;28;20113;-74
2022/12/05 02:54:16;;;;;;;25.15;12.85;;;4.50;99.90;;;;;;5037266;28;20028;-74
2022/12/05 02:56:44;;;;;;;23.75;13.50;;;4.50;99.90;;;;;;5037277;28;20099;-74
2022/12/05 02:59:10;;;;;;;22.88;13.02;;;4.50;99.90;;;;;;5019154;28;20017;-74
2022/12/05 03:01:35;;;;;;;24.95;12.93;;;4.50;99.90;;;;;;5036323;28;20117;-74
2022/12/05 03:04:05;;;;;;;25.58;13.02;;;4.50;99.90;;;;;;5036667;28;20041;-74
2022/12/05 03:06:38;;;;;;;21.65;13.20;;;4.50;99.90;;;;;;5037120;28;20092;-74
2022/12/05 03:09:14;;;;;;;23.25;11.85;;;4.50;99.90;;;;;;5036777;28;20108;-74
2022/12/05 03:12:01;;;;;;;23.08;11.70;;;4.50;99.90;;;;;;5036927;28;20048;-74
2022/12/05 03:14:36;;;;;;;21.73;12.45;;;4.50;99.90;;;;;;5018398;28;20032;-74
2022/12/05 03:17:06;;;;;;;21.42;11.90;;;4.50;99.90;;;;;;5036743;28;20032;-74
2022/12/05 03:19:34;;;;;;;21.45;12.82;;;4.50;99.90;;;;;;5037274;28;20017;-74
2022/12/05 03:22:06;;;;;;;20.75;12.30;;;4.50;99.90;;;;;;5036488;28;20025;-74
2022/12/05 03:24:39;;;;;;;21.50;13.18;;;4.40;99.90;;;;;;5019110;28;20032;-74
2022/12/05 03:27:13;;;;;;;22.98;12.25;;;4.40;99.90;;;;;;5036395;28;20025;-74
2022/12/05 03:29:50;;;;;;;21.95;12.98;;;4.40;99.90;;;;;;5036608;28;20473;-74
2022/12/05 03:32:29;;;;;;;24.33;13.00;;;4.40;99.90;;;;;;5036674;28;20030;-74
2022/12/05 03:35:20;;;;;;;25.85;13.18;;;4.40;99.90;;;;;;5018728;28;20076;-74
2022/12/05 03:38:05;;;;;;;26.38;13.20;;;4.40;99.90;;;;;;5035761;28;20037;-74
2022/12/05 03:40:30;;;;;;;20.83;12.70;;;4.40;99.90;;;;;;5035823;28;20022;-74
2022/12/05 03:43:25;;;;;;;22.88;13.18;;;4.40;99.90;;;;;;5036119;28;20385;-74
2022/12/05 03:46:04;;;;;;;26.33;12.70;;;4.40;99.90;;;;;;4987469;28;20049;-75
2022/12/05 03:48:37;;;;;;;25.90;14.32;;;4.40;99.90;;;;;;5031889;28;20026;-74
2022/12/05 03:51:05;;;;;;;26.15;13.63;;;4.40;99.90;;;;;;5036051;28;20029;-74
2022/12/05 03:53:36;;;;;;;22.42;12.73;;;4.40;99.90;;;;;;5035468;28;20017;-74
2022/12/05 03:56:26;;;;;;;30.35;15.05;;;4.30;99.90;;;;;;5018272;28;20473;-74
2022/12/05 03:59:01;;;;;;;21.92;13.50;;;4.40;99.90;;;;;;5035026;28;20025;-75
2022/12/05 04:01:29;;;;;;;27.55;15.05;;;4.30;99.90;;;;;;5023157;28;20026;-75
2022/12/05 04:04:01;;;;;;;22.77;13.73;;;4.30;99.90;;;;;;5035031;28;20087;-74
2022/12/05 04:06:36;;;;;;;28.67;14.35;;;4.30;99.90;;;;;;5036003;28;20083;-74
2022/12/05 04:09:11;;;;;;;26.73;14.45;;;4.40;99.90;;;;;;5035591;28;20041;-74
2022/12/05 04:11:46;;;;;;;27.83;14.52;;;4.30;99.90;;;;;;5035768;28;20543;-74
2022/12/05 04:14:17;;;;;;;37.35;14.82;;;4.30;99.90;;;;;;5034864;28;20025;-75
2022/12/05 04:17:02;;;;;;;28.15;14.70;;;4.30;99.90;;;;;;5017790;28;20393;-74
2022/12/05 04:22:20;;;;;;;33.17;16.15;;;4.30;99.90;;;;;;5035362;28;20389;-74
2022/12/05 04:27:51;;;;;;;28.77;16.73;;;4.30;99.90;;;;;;5011984;28;20121;-74
2022/12/05 04:30:22;;;;;;;31.48;14.63;;;4.30;99.90;;;;;;5035161;28;20029;-74
2022/12/05 04:32:57;;;;;;;29.88;14.77;;;4.20;99.90;;;;;;5035270;28;20025;-74
2022/12/05 04:35:29;;;;;;;26.02;14.55;;;4.30;99.90;;;;;;5034802;28;20504;-74
2022/12/05 04:38:16;;;;;;;29.45;15.75;;;4.30;99.90;;;;;;5017465;28;20026;-74
2022/12/05 04:40:50;;;;;;;28.30;14.90;;;4.30;99.90;;;;;;5017323;28;20129;-74
2022/12/05 04:43:19;;;;;;;29.00;14.82;;;4.30;99.90;;;;;;5035012;28;20025;-74
2022/12/05 04:45:45;;;;;;;29.60;14.90;;;4.30;99.90;;;;;;5034628;28;20037;-74
2022/12/05 04:48:14;;;;;;;28.85;16.02;;;4.30;99.90;;;;;;5035083;28;20028;-74
2022/12/05 04:50:44;;;;;;;32.35;15.95;;;4.30;99.90;;;;;;5034962;28;20088;-74
2022/12/05 04:53:11;;;;;;;29.50;15.27;;;4.20;99.90;;;;;;5034926;28;20029;-74
2022/12/05 04:55:41;;;;;;;34.10;16.20;;;4.30;99.90;;;;;;5034289;28;20093;-74
2022/12/05 04:58:13;;;;;;;30.70;15.70;;;4.30;99.90;;;;;;5035250;28;20040;-74
2022/12/05 05:01:04;;;;;;;24.85;14.80;;;4.30;99.90;;;;;;5017053;28;20033;-74
2022/12/05 05:03:38;;;;;;;26.00;15.32;;;4.20;99.90;;;;;;5034584;28;20064;-74
2022/12/05 05:06:06;;;;;;;32.25;14.90;;;4.30;99.90;;;;;;5035066;28;20439;-74
2022/12/05 05:08:31;;;;;;;33.40;15.38;;;4.30;99.90;;;;;;5034088;28;20033;-74
2022/12/05 05:11:09;;;;;;;30.77;16.10;;;4.20;99.90;;;;;;5034206;28;20021;-74
2022/12/05 05:13:35;;;;;;;28.20;14.40;;;4.20;99.90;;;;;;5034653;28;20022;-74
2022/12/05 05:16:00;;;;;;;31.38;15.35;;;4.30;99.90;;;;;;5034077;28;20473;-74
2022/12/05 05:18:26;;;;;;;29.60;14.68;;;4.30;99.90;;;;;;5034637;28;20023;-74
2022/12/05 05:20:51;;;;;;;27.17;15.57;;;4.30;99.90;;;;;;5034486;28;20037;-74
2022/12/05 05:23:17;;;;;;;29.88;16.05;;;4.30;99.90;;;;;;5034196;28;20026;-74
2022/12/05 05:25:42;;;;;;;36.33;15.52;;;4.30;99.90;;;;;;5033890;28;20037;-74
2022/12/05 05:28:08;;;;;;;26.42;15.52;;;4.30;99.90;;;;;;5034600;28;20030;-74
2022/12/05 05:30:33;;;;;;;26.50;14.73;;;4.20;99.90;;;;;;5033963;28;20037;-74
2022/12/05 05:32:59;;;;;;;32.90;16.50;;;4.20;99.90;;;;;;5034296;28;20060;-74
2022/12/05 05:35:25;;;;;;;31.30;15.80;;;4.30;99.90;;;;;;5033583;28;20152;-74
2022/12/05 05:37:50;;;;;;;31.05;14.63;;;4.30;99.90;;;;;;5016402;28;20021;-74
2022/12/05 05:40:16;;;;;;;26.00;14.68;;;4.30;99.90;;;;;;5016367;28;20036;-74
2022/12/05 05:42:47;;;;;;;33.03;15.40;;;4.30;99.90;;;;;;5034172;28;20029;-74
2022/12/05 05:45:14;;;;;;;30.95;15.77;;;4.30;99.90;;;;;;5034238;28;20061;-74
2022/12/05 05:47:40;;;;;;;32.10;14.93;;;4.30;99.90;;;;;;5033280;28;20527;-75
2022/12/05 05:50:06;;;;;;;28.00;15.40;;;4.30;99.90;;;;;;5034087;28;20036;-74
2022/12/05 05:52:33;;;;;;;28.75;14.50;;;4.30;99.90;;;;;;5015923;28;20022;-74
2022/12/05 05:55:00;;;;;;;30.75;15.88;;;4.30;99.90;;;;;;5033744;28;20109;-74
2022/12/05 05:57:25;;;;;;;28.20;15.55;;;4.30;99.90;;;;;;5033101;28;20032;-74
2022/12/05 05:59:51;;;;;;;31.35;15.50;;;4.30;99.90;;;;;;5033894;28;20026;-74
2022/12/05 06:02:16;;;;;;;28.23;15.00;;;4.40;99.90;;;;;;5033347;28;20034;-73
2022/12/05 06:04:42;;;;;;;29.77;15.07;;;4.30;99.90;;;;;;5033625;28;20022;-74
2022/12/05 06:07:07;;;;;;;31.05;14.15;;;4.30;99.90;;;;;;5015406;28;20435;-74
2022/12/05 06:09:33;;;;;;;31.45;15.13;;;4.30;99.90;;;;;;5033550;28;20032;-74
2022/12/05 06:11:58;;;;;;;34.72;16.13;;;4.30;99.90;;;;;;5033272;28;20476;-74
2022/12/05 06:14:24;;;;;;;32.70;14.48;;;4.30;99.90;;;;;;5016092;28;20558;-74
2022/12/05 06:16:49;;;;;;;31.13;15.27;;;4.30;99.90;;;;;;5033577;28;20128;-74
2022/12/05 06:19:15;;;;;;;26.92;13.90;;;4.30;99.90;;;;;;5033391;28;20488;-74
2022/12/05 06:21:40;;;;;;;33.13;15.75;;;4.30;99.90;;;;;;5032969;28;20030;-74
2022/12/05 06:24:06;;;;;;;27.75;14.40;;;4.30;99.90;;;;;;5037031;28;20389;-74
2022/12/05 06:26:32;;;;;;;28.25;14.15;;;4.30;99.90;;;;;;5037548;28;20040;-74
2022/12/05 06:28:57;;;;;;;30.95;14.07;;;4.30;99.90;;;;;;5019005;28;20034;-74
2022/12/05 06:31:27;;;;;;;25.17;14.57;;;4.40;99.90;;;;;;5037830;28;20040;-73
2022/12/05 06:33:52;;;;;;;28.38;14.40;;;4.30;99.90;;;;;;5037327;28;20018;-74
2022/12/05 06:36:20;;;;;;;31.05;15.60;;;4.30;99.90;;;;;;5037475;28;20036;-74
2022/12/05 06:38:45;;;;;;;30.77;15.15;;;4.30;99.90;;;;;;5036858;28;20028;-74
2022/12/05 06:41:14;;;;;;;31.15;15.20;;;4.30;99.90;;;;;;5037605;28;20477;-74
2022/12/05 06:43:40;;;;;;;33.53;15.65;;;4.30;99.90;;;;;;5037221;28;20021;-74
2022/12/05 06:46:08;;;;;;;30.15;15.27;;;4.30;99.90;;;;;;5037419;28;20061;-74
2022/12/05 06:48:34;;;;;;;35.10;15.25;;;4.30;99.90;;;;;;5037266;28;20040;-74
2022/12/05 06:51:00;;;;;;;33.75;17.13;;;4.30;99.90;;;;;;5036489;28;20388;-74
2022/12/05 06:53:26;;;;;;;35.53;16.50;;;4.30;99.90;;;;;;5019655;28;20025;-74
2022/12/05 06:56:00;;;;;;;32.35;14.98;;;4.20;99.90;;;;;;5037417;28;20017;-74
2022/12/05 06:58:26;;;;;;;33.55;14.90;;;4.20;99.90;;;;;;5037311;28;20342;-74
2022/12/05 07:03:36;;;;;;;30.15;15.43;;;4.20;99.90;;;;;;5037117;28;20056;-74
2022/12/05 07:06:06;;;;;;;28.20;15.35;;;4.30;99.90;;;;;;5036859;28;20025;-74
2022/12/05 07:08:32;;;;;;;38.90;16.73;;;4.30;99.90;;;;;;5036794;28;20129;-74
2022/12/05 07:10:58;;;;;;;34.78;15.45;;;4.30;99.90;;;;;;5036194;28;20067;-74
2022/12/05 07:13:24;;;;;;;33.03;15.23;;;4.30;99.90;;;;;;5036734;28;20029;-74
2022/12/05 07:15:49;;;;;;;37.92;15.38;;;4.30;99.90;;;;;;5018981;28;20027;-74
2022/12/05 07:18:16;;;;;;;28.30;13.85;;;4.30;99.90;;;;;;5036830;28;20021;-74
2022/12/05 07:20:42;;;;;;;29.75;14.95;;;4.30;99.90;;;;;;5036483;28;20121;-74
2022/12/05 07:23:09;;;;;;;30.23;14.95;;;4.30;99.90;;;;;;5035955;28;20029;-74
2022/12/05 07:25:39;;;;;;;30.25;13.70;;;4.40;99.90;;;;;;5036405;28;20040;-74
2022/12/05 07:28:05;;;;;;;29.20;13.70;;;4.30;99.90;;;;;;5018773;28;20400;-74
2022/12/05 07:30:30;;;;;;;25.70;13.52;;;4.30;99.90;;;;;;5036573;28;20028;-74
2022/12/05 07:32:56;;;;;;;31.23;14.02;;;4.30;99.90;;;;;;5036144;28;20079;-74
2022/12/05 07:35:21;;;;;;;28.98;14.68;;;4.30;99.90;;;;;;5036312;28;20064;-74
2022/12/05 07:37:47;;;;;;;25.92;13.73;;;4.30;99.90;;;;;;5035632;28;20170;-74
2022/12/05 07:40:13;;;;;;;32.53;14.38;;;4.30;99.90;;;;;;5018465;28;20431;-74
2022/12/05 07:42:38;;;;;;;28.80;14.02;;;4.30;99.90;;;;;;5018295;28;20044;-74
2022/12/05 07:45:05;;;;;;;26.48;13.55;;;4.30;99.90;;;;;;5036243;28;20025;-74
2022/12/05 07:47:30;;;;;;;27.42;13.50;;;4.30;99.90;;;;;;5036037;28;20052;-74
2022/12/05 07:49:56;;;;;;;29.13;14.40;;;4.30;99.90;;;;;;5018277;28;20476;-73
2022/12/05 07:52:21;;;;;;;29.27;13.45;;;4.30;99.90;;;;;;5035490;28;20476;-74
2022/12/05 07:54:47;;;;;;;27.08;13.70;;;4.30;99.90;;;;;;5035947;28;20080;-73
2022/12/05 07:57:13;;;;;;;32.42;13.02;;;4.20;99.90;;;;;;5035953;28;20473;-74
2022/12/05 07:59:38;;;;;;;26.88;13.48;;;4.20;99.90;;;;;;5035926;28;20416;-73
2022/12/05 08:02:04;;;;;;;28.60;14.52;;;4.30;99.90;;;;;;5035740;28;20395;-74
2022/12/05 08:04:29;;;;;;;29.45;14.10;;;4.20;99.90;;;;;;5081604;22;20073;-71
2022/12/05 08:06:55;;;;;;;26.17;13.85;;;4.20;99.90;;;;;;5054951;28;20091;-71
2022/12/05 08:09:21;;;;;;;26.65;12.70;;;4.30;99.90;;;;;;5055545;28;20025;-71
2022/12/05 08:11:46;;;;;;;22.33;11.80;;;4.30;99.90;;;;;;5055199;28;20112;-71
2022/12/05 08:14:12;;;;;;;34.15;13.35;;;4.30;99.90;;;;;;5055322;28;20037;-71
2022/12/05 08:16:38;;;;;;;24.95;13.82;;;4.30;99.90;;;;;;5055577;28;20048;-70
2022/12/05 08:19:05;;;;;;;22.10;12.90;;;4.20;99.90;;;;;;5054846;28;20096;-70
2022/12/05 08:21:32;;;;;;;23.63;12.77;;;4.20;99.90;;;;;;5055680;28;20407;-71
2022/12/05 08:23:57;;;;;;;27.10;12.38;;;4.30;99.90;;;;;;5055444;28;20033;-70
2022/12/05 08:26:25;;;;;;;21.10;12.00;;;4.40;99.90;;;;;;5055633;28;20074;-71
2022/12/05 08:28:54;;;;;;;28.02;12.82;;;4.30;99.90;;;;;;5054686;28;20396;-70
2022/12/05 08:31:22;;;;;;;21.45;11.98;;;4.30;99.90;;;;;;5054958;28;20110;-70
2022/12/05 08:33:49;;;;;;;29.58;12.07;;;4.30;99.90;;;;;;5054993;28;20060;-71
2022/12/05 08:36:15;;;;;;;20.23;11.57;;;4.30;99.90;;;;;;5054839;28;20025;-71
2022/12/05 08:38:41;;;;;;;25.38;13.13;;;4.30;99.90;;;;;;5054302;28;20387;-71
2022/12/05 08:41:09;;;;;;;26.48;12.55;;;4.40;99.90;;;;;;5054972;28;20025;-71
2022/12/05 08:43:35;;;;;;;21.33;12.32;;;4.40;99.90;;;;;;5054635;28;20090;-71
2022/12/05 08:46:02;;;;;;;24.75;11.15;;;4.40;99.90;;;;;;5054063;28;20424;-71
2022/12/05 08:48:29;;;;;;;21.15;11.50;;;4.40;99.90;;;;;;5054236;28;20395;-70
2022/12/05 08:50:55;;;;;;;23.35;12.77;;;4.30;99.90;;;;;;5054696;28;20108;-71
2022/12/05 08:53:21;;;;;;;21.05;12.13;;;4.40;99.90;;;;;;5054456;28;20096;-72
2022/12/05 08:55:47;;;;;;;31.40;11.85;;;4.40;99.90;;;;;;5054397;28;20025;-71
2022/12/05 08:58:13;;;;;;;21.17;10.60;;;4.30;99.90;;;;;;5054093;28;20021;-71
2022/12/05 09:00:39;;;;;;;21.60;11.88;;;4.40;99.90;;;;;;5044566;28;20025;-71
2022/12/05 09:03:05;;;;;;;29.23;12.85;;;4.30;99.90;;;;;;5049107;28;20032;-71
2022/12/05 09:05:30;;;;;;;20.73;11.13;;;4.30;99.90;;;;;;5053531;28;20488;-71
2022/12/05 09:07:58;;;;;;;24.60;12.40;;;4.40;99.90;;;;;;5053871;28;20061;-71
2022/12/05 09:10:24;;;;;;;26.63;12.70;;;4.30;99.90;;;;;;5036099;28;20033;-71
2022/12/05 09:12:50;;;;;;;31.80;10.50;;;4.40;99.90;;;;;;5053954;28;20029;-71
2022/12/05 09:15:16;;;;;;;22.65;11.70;;;4.40;99.90;;;;;;5053757;28;20017;-71
2022/12/05 09:17:42;;;;;;;21.77;11.27;;;4.40;99.90;;;;;;5053996;28;20098;-71
2022/12/05 09:20:10;;;;;;;28.48;11.00;;;4.30;99.90;;;;;;5053958;28;20092;-70
2022/12/05 09:22:36;;;;;;;24.27;11.48;;;4.40;99.90;;;;;;5053993;28;20021;-70
2022/12/05 09:25:02;;;;;;;19.77;11.02;;;4.40;99.90;;;;;;5053475;28;20031;-70
2022/12/05 09:27:27;;;;;;;24.38;11.77;;;4.40;99.90;;;;;;5053880;28;20083;-71
2022/12/05 09:29:53;;;;;;;27.23;12.80;;;4.40;99.90;;;;;;5053735;28;20032;-70
2022/12/05 09:32:19;;;;;;;24.70;11.30;;;4.40;99.90;;;;;;5053877;28;20431;-71
2022/12/05 09:34:44;;;;;;;25.85;11.93;;;4.40;99.90;;;;;;5053119;28;20025;-70
2022/12/05 09:37:10;;;;;;;25.25;12.55;;;4.40;99.90;;;;;;5053764;28;20087;-71
2022/12/05 09:39:35;;;;;;;24.50;12.15;;;4.40;99.90;;;;;;5053703;28;20129;-70
2022/12/05 09:42:19;;;;;;;27.23;11.57;;;4.40;99.90;;;;;;5053543;28;20048;-70
2022/12/05 09:45:07;;;;;;;30.25;12.00;;;4.40;99.90;;;;;;5053632;28;20031;-71
2022/12/05 09:47:53;;;;;;;28.42;13.55;;;4.40;99.90;;;;;;5053508;28;20032;-70
2022/12/05 09:50:32;;;;;;;27.98;12.82;;;4.40;99.90;;;;;;5035615;28;20033;-70
2022/12/05 09:53:26;;;;;;;23.88;12.00;;;4.40;99.90;;;;;;5053409;28;20028;-71
2022/12/05 09:55:53;;;;;;;23.80;11.40;;;4.40;99.90;;;;;;5053441;28;20110;-70
2022/12/05 09:58:27;;;;;;;25.95;12.23;;;4.40;99.90;;;;;;5052583;28;20468;-71
2022/12/05 10:01:10;;;;;;;22.65;11.35;;;4.40;99.90;;;;;;5053557;28;20400;-70
2022/12/05 10:03:48;;;;;;;25.38;11.77;;;4.50;99.90;;;;;;5053271;28;20033;-70
2022/12/05 10:06:30;;;;;;;20.67;11.50;;;4.50;99.90;;;;;;5035448;28;20040;-70
2022/12/05 10:09:19;;;;;;;19.95;11.23;;;4.50;99.90;;;;;;5053202;28;20033;-70
2022/12/05 10:11:51;;;;;;;22.63;11.85;;;4.50;99.90;;;;;;5052995;28;20029;-72
2022/12/05 10:14:32;;;;;;;20.17;10.38;;;4.50;99.90;;;;;;5053394;28;20021;-71
2022/12/05 10:17:07;;;;;;;18.88;10.35;;;4.50;99.90;;;;;;5035501;28;20024;-70
2022/12/05 10:19:38;;;;;;;24.55;10.50;;;4.60;99.90;;;;;;5052905;28;20027;-70
2022/12/05 10:22:13;;;;;;;25.33;10.95;;;4.60;99.90;;;;;;5053304;28;20074;-70
2022/12/05 10:24:42;;;;;;;18.63;10.63;;;4.60;99.90;;;;;;5053388;28;20033;-71
2022/12/05 10:27:15;;;;;;;16.35;9.63;;;4.60;99.90;;;;;;5053330;28;20024;-71
2022/12/05 10:30:00;;;;;;;17.20;9.35;;;4.60;99.90;;;;;;5048740;28;20588;-69
2022/12/05 10:32:42;;;;;;;16.23;8.68;;;4.70;99.90;;;;;;5032839;28;20025;-71
2022/12/05 10:35:35;;;;;;;17.23;9.23;;;4.60;99.90;;;;;;5034571;28;20026;-71
2022/12/05 10:38:09;;;;;;;16.52;9.23;;;4.60;99.90;;;;;;5050322;28;20040;-71
2022/12/05 10:40:39;;;;;;;18.35;9.57;;;4.60;99.90;;;;;;5051042;28;20057;-71
2022/12/05 10:43:07;;;;;;;19.00;9.00;;;4.70;99.90;;;;;;5033078;28;20036;-71
2022/12/05 10:45:40;;;;;;;17.98;10.05;;;4.70;99.90;;;;;;5032450;28;20435;-71
2022/12/05 10:48:10;;;;;;;16.20;9.10;;;4.70;99.90;;;;;;5033044;28;20022;-71
2022/12/05 10:50:37;;;;;;;15.35;8.40;;;4.70;99.90;;;;;;5033226;28;20103;-71
2022/12/05 10:53:05;;;;;;;13.80;8.82;;;4.70;99.90;;;;;;5050363;28;20443;-71
2022/12/05 10:55:39;;;;;;;14.90;8.55;;;4.70;99.90;;;;;;5052751;28;20534;-71
2022/12/05 10:58:31;;;;;;;19.25;7.70;;;4.70;99.90;;;;;;5051279;28;20391;-71
2022/12/05 11:01:07;;;;;;;15.45;8.23;;;4.80;99.90;;;;;;5048096;28;20381;-72
2022/12/05 11:03:39;;;;;;;18.90;8.63;;;4.80;99.90;;;;;;5052744;28;20037;-71
2022/12/05 11:06:21;;;;;;;14.60;7.45;;;4.80;99.90;;;;;;5043327;28;20075;-71
2022/12/05 11:08:52;;;;;;;15.90;7.53;;;4.90;99.90;;;;;;5033722;28;20389;-71
2022/12/05 11:11:24;;;;;;;14.40;8.10;;;4.80;99.90;;;;;;5046754;28;20100;-71
2022/12/05 11:14:24;;;;;;;20.55;9.18;;;4.80;99.90;;;;;;5056360;28;20017;-71
2022/12/05 11:16:56;;;;;;;14.98;7.95;;;4.90;99.90;;;;;;5055957;28;20033;-71
2022/12/05 11:19:21;;;;;;;14.55;7.72;;;4.90;99.90;;;;;;5056177;28;20083;-71
2022/12/05 11:21:48;;;;;;;15.73;7.68;;;4.90;99.90;;;;;;5037425;28;20029;-71
2022/12/05 11:24:21;;;;;;;13.85;7.70;;;4.80;99.90;;;;;;5056111;28;20384;-71
2022/12/05 11:26:46;;;;;;;15.00;8.40;;;4.80;99.90;;;;;;5054106;28;20112;-71
2022/12/05 11:29:37;;;;;;;16.13;8.13;;;4.80;99.90;;;;;;5056243;28;20075;-71
2022/12/05 11:32:15;;;;;;;14.07;8.02;;;4.80;99.90;;;;;;5036284;28;20095;-71
2022/12/05 11:34:48;;;;;;;18.85;8.65;;;4.80;99.90;;;;;;5035812;28;20476;-71
2022/12/05 11:37:23;;;;;;;13.00;7.05;;;4.80;99.90;;;;;;5018290;28;20029;-71
2022/12/05 11:39:49;;;;;;;17.17;7.88;;;4.80;99.90;;;;;;5056097;28;20033;-71
2022/12/05 11:42:47;;;;;;;17.67;8.15;;;4.80;99.90;;;;;;5056328;28;20064;-71
2022/12/05 11:45:31;;;;;;;15.38;8.32;;;4.80;99.90;;;;;;5038862;28;20480;-71
2022/12/05 11:48:10;;;;;;;;;;;4.80;99.90;;;;;;5018975;28;20447;-71
2022/12/05 11:50:49;;;;;;;17.65;8.07;;;4.80;99.90;;;;;;5052238;28;19951;-71
2022/12/05 11:53:38;;;;;;;21.52;7.97;;;4.80;99.90;;;;;;5055367;28;20028;-71
2022/12/05 11:56:42;;;;;;;14.32;8.10;;;4.80;99.90;;;;;;5037960;28;20618;-72
2022/12/05 11:59:15;;;;;;;13.25;8.38;;;4.80;99.90;;;;;;5055590;28;20021;-71
2022/12/05 12:02:02;;;;;;;19.45;8.00;;;4.80;99.90;;;;;;5037843;28;20028;-71
2022/12/05 12:04:33;;;;;;;21.40;8.85;;;4.80;99.90;;;;;;5054781;28;20040;-71
2022/12/05 12:07:37;;;;;;;14.85;8.38;;;4.80;99.90;;;;;;5055533;28;20044;-71
2022/12/05 12:10:02;;;;;;;12.55;6.57;;;4.90;99.90;;;;;;5017213;28;20489;-71
2022/12/05 12:12:42;;;;;;;15.68;7.45;;;4.80;99.90;;;;;;5053173;28;20088;-71
2022/12/05 12:15:32;;;;;;;13.93;7.82;;;4.90;99.90;;;;;;5055699;28;20021;-71
2022/12/05 12:18:23;;;;;;;12.98;7.50;;;4.90;99.90;;;;;;5037245;28;20435;-71
2022/12/05 12:21:07;;;;;;;11.60;6.90;;;4.90;99.90;;;;;;5054497;28;20031;-71
2022/12/05 12:23:47;;;;;;;;;;;4.80;99.90;;;;;;5034436;28;20030;-71
2022/12/05 12:26:19;;;;;;;15.43;7.35;;;4.80;99.90;;;;;;5035531;28;20275;-71
2022/12/05 12:29:00;;;;;;;13.95;8.30;;;4.80;99.90;;;;;;5034857;28;20029;-71
2022/12/05 12:31:51;;;;;;;17.02;7.43;;;4.80;99.90;;;;;;5017136;28;20083;-71
2022/12/05 12:34:36;;;;;;;14.77;7.60;;;4.80;99.90;;;;;;5016979;28;20469;-71
2022/12/05 12:37:29;;;;;;;18.02;7.78;;;4.90;99.90;;;;;;5017740;28;20455;-71
2022/12/05 12:40:03;;;;;;;17.52;7.32;;;4.80;99.90;;;;;;5034965;28;20029;-71
2022/12/05 12:43:01;;;;;;;13.75;8.07;;;4.90;99.90;;;;;;5034248;28;20448;-71
2022/12/05 12:45:46;;;;;;;17.83;7.70;;;4.80;99.90;;;;;;5035075;28;20480;-71
2022/12/05 12:48:50;;;;;;;16.75;7.15;;;4.80;99.90;;;;;;5035328;28;20018;-71
2022/12/05 12:51:16;;;;;;;15.98;7.85;;;4.80;99.90;;;;;;5031943;28;20048;-71
2022/12/05 12:54:07;;;;;;;12.98;6.97;;;4.90;99.90;;;;;;5034393;28;20034;-71
2022/12/05 12:56:45;;;;;;;15.63;7.22;;;4.90;99.90;;;;;;5034944;28;20055;-71
2022/12/05 12:59:38;;;;;;;14.35;7.38;;;4.90;99.90;;;;;;5034661;28;20507;-71
2022/12/05 13:02:13;;;;;;;15.75;7.53;;;4.80;99.90;;;;;;5033857;28;20481;-71
2022/12/05 13:05:14;;;;;;;15.85;7.47;;;4.80;99.90;;;;;;5035206;28;20033;-71
2022/12/05 13:08:10;;;;;;;16.25;7.55;;;4.90;99.90;;;;;;5034525;28;20034;-71
2022/12/05 13:10:44;;;;;;;18.30;8.13;;;4.90;99.90;;;;;;5033895;28;20022;-71
2022/12/05 13:13:15;;;;;;;14.30;7.25;;;4.90;99.90;;;;;;5034770;28;20027;-71
2022/12/05 13:15:46;;;;;;;13.15;6.72;;;4.80;99.90;;;;;;5034634;28;20076;-71